Time;durP1;ratioP1;P1;durP2;ratioP2;P2;SDS_P1;SDS_P2;PMS_P1;PMS_P2;Temp;Humidity;BMP_temperature;BMP_pressure;BME280_temperature;BME280_humidity;BME280_pressure;Samples;Min_cycle;Max_cycle;Signal;HPM_P1;HPM_P2
2021/06/29 00:01:49;;;;;;;6.90;6.30;;;22.00;75.10;;;;;;4995948;28;20054;-73
2021/06/29 00:04:15;;;;;;;7.45;6.60;;;21.90;76.00;;;;;;4995008;28;20046;-72
2021/06/29 00:06:42;;;;;;;6.85;6.25;;;21.90;75.50;;;;;;4994707;28;20050;-72
2021/06/29 00:09:08;;;;;;;7.45;6.85;;;21.90;75.50;;;;;;4996052;28;20403;-73
2021/06/29 00:11:36;;;;;;;9.10;7.72;;;21.90;75.40;;;;;;5013302;28;20050;-73
2021/06/29 00:14:03;;;;;;;7.07;6.47;;;21.70;76.50;;;;;;5014322;28;20041;-72
2021/06/29 00:16:30;;;;;;;7.30;6.70;;;21.70;77.00;;;;;;5004284;28;20093;-72
2021/06/29 00:18:56;;;;;;;7.43;6.82;;;21.70;76.60;;;;;;5000473;28;20636;-72
2021/06/29 00:21:23;;;;;;;7.40;6.70;;;21.70;76.80;;;;;;5001531;28;20494;-73
2021/06/29 00:23:49;;;;;;;8.35;7.47;;;21.60;77.00;;;;;;5014260;28;20046;-73
2021/06/29 00:26:16;;;;;;;7.45;6.75;;;21.50;77.80;;;;;;5012138;28;20127;-72
2021/06/29 00:28:44;;;;;;;8.50;7.20;;;21.40;77.90;;;;;;4994836;28;20057;-73
2021/06/29 00:31:10;;;;;;;6.60;6.10;;;21.40;77.70;;;;;;4995010;28;20047;-72
2021/06/29 00:33:38;;;;;;;7.45;6.72;;;21.40;78.20;;;;;;5011479;28;20053;-71
2021/06/29 00:36:06;;;;;;;9.82;7.03;;;21.40;77.90;;;;;;4999424;28;20068;-72
2021/06/29 00:38:32;;;;;;;7.32;6.57;;;21.40;78.50;;;;;;5013629;28;20042;-72
2021/06/29 00:40:59;;;;;;;7.97;7.28;;;21.30;79.00;;;;;;5013964;28;20124;-72
2021/06/29 00:43:25;;;;;;;7.70;7.00;;;21.30;79.00;;;;;;5011976;28;20104;-72
2021/06/29 00:45:54;;;;;;;7.80;6.88;;;21.20;79.50;;;;;;5013285;28;20050;-72
2021/06/29 00:48:20;;;;;;;7.53;6.82;;;21.20;79.90;;;;;;5013493;28;20053;-72
2021/06/29 00:50:47;;;;;;;7.38;6.68;;;21.20;80.80;;;;;;5010240;28;20042;-72
2021/06/29 00:53:15;;;;;;;7.72;7.03;;;21.20;80.10;;;;;;5009407;28;20390;-72
2021/06/29 00:55:42;;;;;;;7.65;6.93;;;21.20;80.20;;;;;;5003777;28;20050;-72
2021/06/29 00:58:09;;;;;;;6.82;6.22;;;21.20;80.30;;;;;;4994268;28;20073;-72
2021/06/29 01:00:36;;;;;;;7.82;7.13;;;21.10;80.70;;;;;;4994201;28;20141;-71
2021/06/29 01:03:05;;;;;;;7.78;7.07;;;21.00;81.90;;;;;;4993592;28;20478;-71
2021/06/29 01:05:32;;;;;;;7.00;6.40;;;20.90;82.70;;;;;;5000148;28;20046;-71
2021/06/29 01:07:59;;;;;;;7.45;6.75;;;21.00;82.40;;;;;;5012344;28;20042;-70
2021/06/29 01:10:26;;;;;;;6.88;6.28;;;21.00;82.40;;;;;;5013008;28;20575;-70
2021/06/29 01:12:53;;;;;;;7.47;6.72;;;21.10;82.70;;;;;;4996086;28;20055;-72
2021/06/29 01:15:23;;;;;;;7.90;7.10;;;21.10;83.00;;;;;;4995573;28;20101;-71
2021/06/29 01:17:51;;;;;;;7.47;6.77;;;21.00;83.50;;;;;;4994362;28;20057;-71
2021/06/29 01:20:24;;;;;;;8.93;8.02;;;21.00;84.20;;;;;;4997851;28;20395;-71
2021/06/29 01:22:52;;;;;;;8.10;7.43;;;20.80;85.40;;;;;;5017496;28;20383;-72
2021/06/29 01:25:19;;;;;;;7.95;7.15;;;20.80;87.00;;;;;;5016785;28;20053;-71
2021/06/29 01:27:54;;;;;;;7.35;6.70;;;20.60;88.40;;;;;;5014446;28;20050;-71
2021/06/29 01:33:08;;;;;;;8.90;8.20;;;20.70;90.00;;;;;;5004265;28;20057;-71
2021/06/29 01:35:38;;;;;;;8.00;7.40;;;20.60;90.70;;;;;;5017442;28;20046;-71
2021/06/29 01:38:04;;;;;;;7.97;7.32;;;20.50;91.60;;;;;;5009671;28;20483;-71
2021/06/29 01:40:31;;;;;;;8.38;7.57;;;20.50;91.90;;;;;;5001528;28;20046;-71
2021/06/29 01:42:59;;;;;;;8.15;7.45;;;20.40;92.80;;;;;;4997768;28;20046;-71
2021/06/29 01:45:29;;;;;;;8.85;7.55;;;20.40;93.90;;;;;;4996672;28;20137;-71
2021/06/29 01:47:57;;;;;;;7.55;6.82;;;20.20;96.40;;;;;;5017233;28;20045;-71
2021/06/29 01:50:24;;;;;;;8.88;7.43;;;20.00;98.80;;;;;;5017254;28;20100;-71
2021/06/29 01:53:00;;;;;;;8.80;8.00;;;19.90;99.90;;;;;;4997827;28;20046;-71
2021/06/29 01:55:28;;;;;;;7.63;6.82;;;19.80;99.90;;;;;;5003671;28;20405;-72
2021/06/29 01:57:55;;;;;;;8.70;7.80;;;19.80;99.90;;;;;;5017559;28;20049;-71
2021/06/29 02:00:22;;;;;;;8.15;7.45;;;19.60;99.90;;;;;;5015412;28;20050;-71
2021/06/29 02:02:49;;;;;;;9.65;8.73;;;19.60;99.90;;;;;;5010452;28;20057;-71
2021/06/29 02:05:16;;;;;;;20.13;16.35;;;19.40;99.90;;;;;;5017808;28;20050;-71
2021/06/29 02:07:43;;;;;;;25.65;15.23;;;19.40;99.90;;;;;;5002204;28;20051;-71
2021/06/29 02:10:14;;;;;;;57.80;36.33;;;19.40;99.90;;;;;;4997861;28;20046;-71
2021/06/29 02:12:41;;;;;;;58.95;35.40;;;19.40;99.90;;;;;;4999583;28;20050;-71
2021/06/29 02:15:08;;;;;;;37.67;25.55;;;19.40;99.90;;;;;;5006929;28;20065;-71
2021/06/29 02:17:34;;;;;;;12.57;10.63;;;19.50;99.90;;;;;;5000430;28;20046;-71
2021/06/29 02:20:02;;;;;;;13.05;9.52;;;19.50;99.90;;;;;;5005398;28;20548;-71
2021/06/29 02:22:28;;;;;;;16.02;13.45;;;19.60;99.90;;;;;;5017269;28;20042;-71
2021/06/29 02:24:55;;;;;;;10.13;9.05;;;19.70;99.90;;;;;;5017995;28;20053;-72
2021/06/29 02:27:23;;;;;;;20.83;13.40;;;19.70;99.90;;;;;;5012318;28;20046;-72
2021/06/29 02:29:49;;;;;;;11.43;9.85;;;19.60;99.90;;;;;;5016752;28;20050;-72
2021/06/29 02:32:17;;;;;;;10.13;9.20;;;19.60;99.90;;;;;;5016583;28;20045;-72
2021/06/29 02:34:43;;;;;;;9.82;8.88;;;19.70;99.90;;;;;;5017373;28;20050;-72
2021/06/29 02:37:10;;;;;;;9.77;8.77;;;19.80;99.90;;;;;;5015820;28;20046;-72
2021/06/29 02:39:37;;;;;;;9.90;8.90;;;19.80;99.90;;;;;;5016450;28;20117;-73
2021/06/29 02:42:04;;;;;;;9.23;8.35;;;19.80;99.90;;;;;;5016040;28;20068;-73
2021/06/29 02:44:33;;;;;;;10.48;9.35;;;19.80;99.90;;;;;;5016817;28;20073;-72
2021/06/29 02:47:00;;;;;;;12.60;9.70;;;19.80;99.90;;;;;;5004947;28;20050;-71
2021/06/29 02:49:27;;;;;;;9.32;8.43;;;19.60;99.90;;;;;;4997731;28;20481;-71
2021/06/29 02:51:53;;;;;;;9.77;8.77;;;19.70;99.90;;;;;;4997458;28;20071;-71
2021/06/29 02:54:20;;;;;;;9.40;8.50;;;19.70;99.90;;;;;;4996933;28;20046;-71
2021/06/29 02:56:46;;;;;;;11.02;9.95;;;19.60;99.90;;;;;;5014564;28;20104;-72
2021/06/29 02:59:14;;;;;;;9.27;8.38;;;19.60;99.90;;;;;;5015913;28;20050;-71
2021/06/29 03:01:43;;;;;;;9.85;8.57;;;19.70;99.90;;;;;;5016008;28;20037;-72
2021/06/29 03:04:10;;;;;;;9.68;7.72;;;19.70;99.90;;;;;;5016212;28;20050;-72
2021/06/29 03:06:37;;;;;;;9.20;8.40;;;19.80;99.90;;;;;;5016151;28;20050;-72
2021/06/29 03:09:04;;;;;;;9.43;8.00;;;19.90;99.90;;;;;;5014452;28;20068;-71
2021/06/29 03:11:31;;;;;;;8.27;7.65;;;20.10;99.90;;;;;;4997928;28;20065;-72
2021/06/29 03:13:58;;;;;;;10.57;7.93;;;20.20;99.90;;;;;;5013904;28;20077;-71
2021/06/29 03:16:24;;;;;;;9.23;8.13;;;20.40;99.90;;;;;;5014172;28;20041;-70
2021/06/29 03:18:52;;;;;;;10.82;8.25;;;20.30;99.90;;;;;;5003490;28;20051;-71
2021/06/29 03:21:19;;;;;;;8.63;7.60;;;20.30;99.90;;;;;;5012580;28;20045;-70
2021/06/29 03:23:46;;;;;;;9.32;8.52;;;20.20;99.90;;;;;;5014138;28;20049;-71
2021/06/29 03:26:12;;;;;;;9.57;8.60;;;20.20;99.90;;;;;;5008140;28;20042;-74
2021/06/29 03:28:39;;;;;;;9.85;8.73;;;20.20;99.90;;;;;;5007425;28;20042;-75
2021/06/29 03:31:06;;;;;;;8.80;8.00;;;20.40;99.90;;;;;;5010157;28;20072;-72
2021/06/29 03:33:32;;;;;;;10.00;9.00;;;20.40;99.90;;;;;;5013752;28;20050;-70
2021/06/29 03:36:01;;;;;;;9.75;8.32;;;20.40;99.90;;;;;;5013730;28;20080;-74
2021/06/29 03:38:27;;;;;;;9.32;8.48;;;20.40;99.90;;;;;;5013809;28;20050;-70
2021/06/29 03:40:54;;;;;;;8.80;8.00;;;20.50;99.90;;;;;;5012809;28;20049;-71
2021/06/29 03:43:21;;;;;;;10.10;9.20;;;20.60;99.90;;;;;;5013040;28;20104;-69
2021/06/29 03:45:47;;;;;;;9.93;8.38;;;20.80;99.90;;;;;;5013185;28;20050;-69
2021/06/29 03:48:14;;;;;;;9.80;8.85;;;20.90;99.90;;;;;;5012754;28;20037;-69
2021/06/29 03:50:41;;;;;;;9.10;8.20;;;20.90;99.90;;;;;;5012962;28;20092;-70
2021/06/29 03:53:08;;;;;;;9.05;8.25;;;21.00;99.90;;;;;;5012798;28;20572;-70
2021/06/29 03:55:35;;;;;;;8.63;7.82;;;20.90;99.90;;;;;;5012321;28;20092;-72
2021/06/29 03:58:02;;;;;;;10.32;8.35;;;21.00;99.90;;;;;;5012434;28;20046;-72
2021/06/29 04:00:29;;;;;;;9.10;8.20;;;21.10;99.90;;;;;;5012607;28;20042;-70
2021/06/29 04:02:55;;;;;;;9.52;8.50;;;21.20;99.90;;;;;;5013256;28;20438;-70
2021/06/29 04:05:22;;;;;;;8.85;7.88;;;21.30;99.90;;;;;;5013368;28;20042;-70
2021/06/29 04:07:49;;;;;;;8.85;7.85;;;21.30;99.90;;;;;;5012983;28;20037;-70
2021/06/29 04:10:17;;;;;;;8.45;7.72;;;21.30;99.90;;;;;;5013243;28;20057;-69
2021/06/29 04:12:44;;;;;;;8.43;7.72;;;21.40;99.90;;;;;;5001283;28;20050;-69
2021/06/29 04:15:11;;;;;;;10.15;7.78;;;21.50;99.90;;;;;;4993701;28;20388;-73
2021/06/29 04:17:38;;;;;;;9.50;8.70;;;21.40;99.90;;;;;;5004783;28;20054;-73
2021/06/29 04:20:06;;;;;;;8.77;8.05;;;21.50;99.90;;;;;;5012572;28;20092;-71
2021/06/29 04:22:33;;;;;;;8.90;8.05;;;21.60;99.90;;;;;;4998746;28;20069;-69
2021/06/29 04:24:59;;;;;;;9.15;8.32;;;21.60;99.90;;;;;;4993444;28;20144;-73
2021/06/29 04:27:27;;;;;;;8.38;7.53;;;21.70;99.90;;;;;;4996434;28;20093;-73
2021/06/29 04:29:54;;;;;;;7.97;7.28;;;21.70;99.90;;;;;;5007026;28;20092;-75
2021/06/29 04:32:21;;;;;;;7.50;6.90;;;21.70;99.90;;;;;;5012923;28;20050;-76
2021/06/29 04:34:47;;;;;;;8.18;7.47;;;21.80;99.90;;;;;;5012241;28;20050;-77
2021/06/29 04:37:14;;;;;;;7.50;6.80;;;21.90;99.90;;;;;;5012659;28;20439;-76
2021/06/29 04:39:41;;;;;;;10.20;8.30;;;21.90;99.90;;;;;;5012642;28;20041;-76
2021/06/29 04:42:09;;;;;;;9.07;8.10;;;22.00;99.90;;;;;;5012274;28;20054;-74
2021/06/29 04:44:38;;;;;;;9.45;8.60;;;22.00;99.90;;;;;;5002141;28;20050;-73
2021/06/29 04:47:05;;;;;;;8.85;7.97;;;22.00;99.90;;;;;;5009616;28;20050;-73
2021/06/29 04:49:37;;;;;;;8.68;7.82;;;22.00;99.90;;;;;;5012322;28;20045;-74
2021/06/29 04:52:04;;;;;;;;;;;22.10;99.90;;;;;;5013399;28;20050;-75
2021/06/29 04:54:30;;;;;;;8.77;7.78;;;22.20;99.90;;;;;;5015233;28;19925;-75
2021/06/29 04:56:57;;;;;;;9.10;8.27;;;22.20;99.90;;;;;;5012506;28;20498;-75
2021/06/29 04:59:23;;;;;;;8.57;7.78;;;22.10;99.90;;;;;;5013920;28;20166;-73
2021/06/29 05:01:51;;;;;;;8.80;7.60;;;22.10;99.90;;;;;;4996490;28;20413;-74
2021/06/29 05:04:18;;;;;;;9.40;8.50;;;22.10;99.90;;;;;;5007180;28;20054;-75
2021/06/29 05:06:44;;;;;;;10.20;9.15;;;22.20;99.90;;;;;;5015849;28;20046;-74
2021/06/29 05:09:11;;;;;;;8.95;8.13;;;22.30;99.90;;;;;;5015325;28;20045;-73
2021/06/29 05:11:38;;;;;;;9.05;8.25;;;22.40;99.90;;;;;;4996809;28;20050;-75
2021/06/29 05:14:04;;;;;;;9.05;8.18;;;22.50;99.90;;;;;;5006908;28;20058;-77
2021/06/29 05:16:31;;;;;;;11.95;9.43;;;22.60;99.90;;;;;;5010343;28;20089;-77
2021/06/29 05:18:59;;;;;;;9.07;8.27;;;22.80;99.90;;;;;;4996470;28;20112;-78
2021/06/29 05:21:29;;;;;;;10.20;9.30;;;22.90;99.90;;;;;;4998141;28;20478;-81
2021/06/29 05:23:59;;;;;;;9.95;8.70;;;22.90;99.90;;;;;;5007154;28;20490;-78
2021/06/29 05:26:46;;;;;;;10.25;8.55;;;23.00;99.90;;;;;;5017761;28;20046;-78
2021/06/29 05:29:12;;;;;;;9.52;8.52;;;23.00;99.90;;;;;;4998991;28;20384;-78
2021/06/29 05:31:39;;;;;;;9.88;8.80;;;23.00;99.90;;;;;;4997058;28;20054;-78
2021/06/29 05:34:07;;;;;;;8.95;8.10;;;23.00;99.90;;;;;;5007721;28;20158;-74
2021/06/29 05:36:34;;;;;;;9.18;8.23;;;22.90;99.90;;;;;;5014312;28;20433;-76
2021/06/29 05:39:00;;;;;;;10.63;9.05;;;22.90;99.90;;;;;;5014818;28;20041;-75
2021/06/29 05:41:27;;;;;;;11.15;10.07;;;22.90;99.90;;;;;;5010742;28;20111;-79
2021/06/29 05:43:53;;;;;;;9.88;8.98;;;23.00;99.90;;;;;;5017600;28;20552;-77
2021/06/29 05:46:20;;;;;;;12.23;9.60;;;23.10;99.90;;;;;;5015265;28;20073;-75
2021/06/29 05:48:48;;;;;;;17.52;12.48;;;23.20;99.90;;;;;;5014333;28;20042;-78
2021/06/29 05:51:16;;;;;;;10.32;9.25;;;23.20;99.90;;;;;;5015884;28;20060;-76
2021/06/29 05:53:43;;;;;;;10.88;8.77;;;23.30;99.90;;;;;;5014965;28;20049;-75
2021/06/29 05:56:11;;;;;;;12.13;9.75;;;23.40;99.90;;;;;;5012598;28;20057;-75
2021/06/29 05:58:39;;;;;;;9.02;8.23;;;23.30;99.90;;;;;;5013820;28;20112;-75
2021/06/29 06:01:06;;;;;;;43.15;29.52;;;23.40;99.90;;;;;;5004908;28;20045;-76
2021/06/29 06:03:32;;;;;;;14.90;13.23;;;23.60;99.90;;;;;;5015087;28;20104;-76
2021/06/29 06:05:59;;;;;;;9.38;8.48;;;23.80;99.90;;;;;;5014484;28;20081;-75
2021/06/29 06:08:27;;;;;;;9.65;8.82;;;24.30;99.90;;;;;;5011976;28;20108;-78
2021/06/29 06:10:54;;;;;;;9.75;8.77;;;24.40;99.80;;;;;;5008465;28;20096;-74
2021/06/29 06:13:21;;;;;;;9.73;8.82;;;24.80;98.90;;;;;;5007966;28;20104;-73
2021/06/29 06:15:48;;;;;;;9.70;8.73;;;25.30;97.40;;;;;;5023534;28;20472;-69
2021/06/29 06:18:14;;;;;;;8.82;8.05;;;25.70;96.60;;;;;;4995494;28;20042;-75
2021/06/29 06:20:41;;;;;;;9.75;8.85;;;26.10;95.50;;;;;;5002735;28;20096;-70
2021/06/29 06:23:08;;;;;;;9.45;8.57;;;26.40;94.10;;;;;;5013808;28;20104;-71
2021/06/29 06:25:36;;;;;;;10.23;8.77;;;26.90;92.00;;;;;;5013573;28;20100;-72
2021/06/29 06:28:03;;;;;;;7.97;7.28;;;27.00;91.30;;;;;;5014304;28;20073;-72
2021/06/29 06:30:30;;;;;;;10.07;8.60;;;27.60;90.60;;;;;;5014371;28;20433;-71
2021/06/29 06:32:57;;;;;;;8.32;7.50;;;27.80;88.20;;;;;;5014159;28;20057;-72
2021/06/29 06:35:23;;;;;;;8.63;7.55;;;27.70;86.50;;;;;;5014095;28;20054;-72
2021/06/29 06:37:50;;;;;;;7.40;6.82;;;27.50;86.10;;;;;;5014028;28;20365;-72
2021/06/29 06:40:17;;;;;;;7.65;7.00;;;27.60;86.10;;;;;;5014084;28;20045;-72
2021/06/29 06:42:46;;;;;;;9.60;8.05;;;27.70;85.30;;;;;;5014178;28;20100;-72
2021/06/29 06:45:13;;;;;;;8.77;7.88;;;28.20;85.00;;;;;;5014110;28;20418;-72
2021/06/29 06:47:40;;;;;;;8.82;7.90;;;28.90;82.60;;;;;;5013799;28;20073;-72
2021/06/29 06:50:08;;;;;;;9.40;8.60;;;29.30;79.80;;;;;;5014073;28;20104;-71
2021/06/29 06:52:35;;;;;;;8.18;7.53;;;29.60;78.90;;;;;;5013942;28;20046;-71
2021/06/29 06:55:01;;;;;;;8.57;7.75;;;29.60;77.70;;;;;;5013991;28;20054;-72
2021/06/29 06:57:28;;;;;;;9.35;8.52;;;29.40;76.30;;;;;;5013748;28;20078;-72
2021/06/29 06:59:56;;;;;;;8.02;7.38;;;29.90;75.50;;;;;;5013760;28;20124;-72
2021/06/29 07:02:23;;;;;;;9.05;7.13;;;30.30;73.80;;;;;;5013744;28;20482;-71
2021/06/29 07:04:49;;;;;;;8.40;7.60;;;30.40;71.50;;;;;;5013716;28;20115;-71
2021/06/29 07:07:16;;;;;;;8.05;7.50;;;30.30;72.20;;;;;;5013177;28;20050;-71
2021/06/29 07:09:42;;;;;;;8.85;8.00;;;30.30;71.40;;;;;;5013625;28;20478;-71
2021/06/29 07:12:10;;;;;;;8.50;7.70;;;30.80;70.50;;;;;;5013710;28;20050;-71
2021/06/29 07:14:37;;;;;;;8.90;8.15;;;30.70;67.70;;;;;;5013516;28;20049;-72
2021/06/29 07:17:05;;;;;;;8.80;6.72;;;31.00;68.10;;;;;;5003317;28;20096;-71
2021/06/29 07:19:32;;;;;;;8.38;7.70;;;31.10;67.70;;;;;;4993875;28;20047;-71
2021/06/29 07:21:58;;;;;;;8.52;7.82;;;31.20;66.80;;;;;;4993848;28;20109;-71
2021/06/29 07:24:25;;;;;;;8.50;7.80;;;31.80;65.80;;;;;;4993775;28;20471;-72
2021/06/29 07:26:52;;;;;;;7.82;7.22;;;31.70;65.00;;;;;;4993277;28;20046;-71
2021/06/29 07:29:19;;;;;;;9.48;8.48;;;31.50;64.50;;;;;;4993934;28;20054;-71
2021/06/29 07:31:45;;;;;;;7.60;7.00;;;31.30;65.50;;;;;;4993722;28;20046;-72
2021/06/29 07:34:13;;;;;;;9.05;8.20;;;31.30;64.10;;;;;;4994044;28;20050;-72
2021/06/29 07:36:40;;;;;;;13.73;12.32;;;31.60;64.50;;;;;;4994264;28;20478;-72
2021/06/29 07:39:07;;;;;;;11.32;10.27;;;32.10;63.10;;;;;;5013073;28;20046;-72
2021/06/29 07:41:33;;;;;;;8.75;7.53;;;32.10;62.60;;;;;;5012987;28;20464;-71
2021/06/29 07:44:00;;;;;;;9.73;8.82;;;32.60;64.70;;;;;;5013077;28;20437;-71
2021/06/29 07:46:27;;;;;;;9.80;8.82;;;32.70;63.90;;;;;;5012850;28;20107;-71
2021/06/29 07:48:53;;;;;;;9.38;8.57;;;33.00;62.50;;;;;;5012858;28;20089;-71
2021/06/29 07:51:21;;;;;;;8.68;7.88;;;33.50;61.30;;;;;;5012865;28;20425;-71
2021/06/29 07:53:48;;;;;;;10.40;9.43;;;33.10;59.30;;;;;;5012845;28;20455;-71
2021/06/29 07:56:15;;;;;;;9.52;8.52;;;33.10;60.40;;;;;;5013132;28;20046;-71
2021/06/29 07:58:42;;;;;;;9.27;8.57;;;33.70;61.20;;;;;;5012875;28;20070;-71
2021/06/29 08:01:09;;;;;;;7.47;6.68;;;34.30;59.20;;;;;;5012702;28;20046;-72
2021/06/29 08:03:35;;;;;;;7.88;7.28;;;33.90;57.30;;;;;;5012789;28;20049;-71
2021/06/29 08:06:02;;;;;;;6.90;6.40;;;33.90;57.10;;;;;;5012633;28;20069;-72
2021/06/29 08:08:30;;;;;;;10.43;9.52;;;33.70;56.60;;;;;;5012675;28;20042;-71
2021/06/29 08:10:58;;;;;;;7.57;6.88;;;34.20;56.20;;;;;;5012780;28;20163;-72
2021/06/29 08:13:24;;;;;;;12.07;10.00;;;34.50;56.40;;;;;;5012510;28;20096;-72
2021/06/29 08:15:51;;;;;;;8.15;7.45;;;34.70;55.50;;;;;;5012159;28;20076;-72
2021/06/29 08:18:18;;;;;;;6.22;5.72;;;35.40;54.80;;;;;;4994240;28;20077;-71
2021/06/29 08:20:44;;;;;;;8.23;7.43;;;34.50;53.90;;;;;;4992838;28;20046;-72
2021/06/29 08:23:11;;;;;;;7.90;7.22;;;34.50;54.90;;;;;;4992950;28;20051;-71
2021/06/29 08:25:39;;;;;;;8.90;7.90;;;34.40;54.70;;;;;;4992846;28;20504;-72
2021/06/29 08:28:06;;;;;;;6.63;6.13;;;34.00;55.60;;;;;;4992344;28;20542;-71
2021/06/29 08:30:33;;;;;;;8.63;5.95;;;33.70;55.90;;;;;;4992729;28;20046;-71
2021/06/29 08:32:59;;;;;;;6.47;5.93;;;33.00;55.90;;;;;;4992900;28;20046;-72
2021/06/29 08:35:26;;;;;;;6.93;5.90;;;31.90;57.20;;;;;;4992489;28;20078;-71
2021/06/29 08:37:52;;;;;;;6.85;6.35;;;31.40;58.60;;;;;;4992648;28;20097;-72
2021/06/29 08:40:19;;;;;;;6.70;6.20;;;31.00;59.20;;;;;;4992610;28;20069;-72
2021/06/29 08:42:47;;;;;;;6.50;6.00;;;31.00;59.80;;;;;;5008198;28;20050;-72
2021/06/29 08:45:16;;;;;;;6.28;5.78;;;31.00;60.10;;;;;;5011944;28;20042;-71
2021/06/29 08:47:43;;;;;;;6.60;6.05;;;31.30;59.40;;;;;;5012014;28;20054;-71
2021/06/29 08:50:12;;;;;;;6.35;5.85;;;31.00;59.40;;;;;;5012199;28;20482;-72
2021/06/29 08:52:39;;;;;;;6.07;5.57;;;30.80;59.60;;;;;;5014690;28;20069;-71
2021/06/29 08:55:07;;;;;;;6.95;6.25;;;30.60;60.50;;;;;;5016323;28;20057;-72
2021/06/29 08:57:34;;;;;;;6.15;5.75;;;30.90;61.00;;;;;;5011731;28;20053;-72
2021/06/29 09:00:01;;;;;;;6.40;5.40;;;30.90;59.70;;;;;;4996523;28;20479;-72
2021/06/29 09:02:29;;;;;;;6.57;6.07;;;30.80;58.90;;;;;;4992654;28;20046;-72
2021/06/29 09:04:59;;;;;;;6.60;6.10;;;30.90;58.50;;;;;;4992735;28;20054;-72
2021/06/29 09:07:26;;;;;;;6.20;5.65;;;30.90;58.40;;;;;;4992180;28;20081;-72
2021/06/29 09:09:55;;;;;;;6.35;5.85;;;31.10;58.30;;;;;;4992517;28;20457;-72
2021/06/29 09:12:41;;;;;;;7.00;6.15;;;31.00;58.60;;;;;;4992813;28;20046;-72
2021/06/29 09:15:43;;;;;;;6.30;5.80;;;31.00;59.30;;;;;;4992514;28;20050;-72
2021/06/29 09:18:20;;;;;;;5.97;5.50;;;31.10;59.20;;;;;;4992226;28;20113;-72
2021/06/29 09:20:50;;;;;;;5.60;5.20;;;31.60;58.70;;;;;;4992611;28;20553;-71
2021/06/29 09:23:19;;;;;;;6.13;5.63;;;32.00;57.60;;;;;;4993727;28;20402;-71
2021/06/29 09:25:48;;;;;;;6.05;5.55;;;32.20;56.50;;;;;;4991882;28;20046;-71
2021/06/29 09:28:18;;;;;;;5.28;4.88;;;31.60;56.50;;;;;;4991895;28;20043;-71
2021/06/29 09:30:48;;;;;;;5.45;4.95;;;31.20;57.20;;;;;;4992282;28;20046;-71
2021/06/29 09:33:17;;;;;;;6.27;5.67;;;31.10;57.50;;;;;;4992676;28;20038;-71
2021/06/29 09:35:47;;;;;;;5.88;5.38;;;31.20;57.80;;;;;;4992321;28;20050;-71
2021/06/29 09:38:19;;;;;;;5.78;5.28;;;30.90;56.40;;;;;;4992087;28;20046;-71
2021/06/29 09:40:47;;;;;;;5.43;4.82;;;30.80;57.50;;;;;;4994837;28;20104;-71
2021/06/29 09:43:15;;;;;;;5.07;4.68;;;31.20;57.20;;;;;;4995756;28;20042;-71
2021/06/29 09:45:44;;;;;;;5.97;5.47;;;30.80;56.40;;;;;;4995081;28;20104;-71
2021/06/29 09:48:14;;;;;;;5.00;4.50;;;30.90;56.60;;;;;;4995489;28;20108;-71
2021/06/29 09:50:45;;;;;;;4.68;4.28;;;30.70;56.00;;;;;;4995531;28;20117;-71
2021/06/29 09:53:36;;;;;;;5.55;5.05;;;30.30;57.00;;;;;;4995566;28;20134;-71
2021/06/29 09:56:05;;;;;;;6.53;5.93;;;30.30;57.50;;;;;;4993457;28;20053;-70
2021/06/29 09:58:33;;;;;;;6.10;5.57;;;30.50;57.70;;;;;;4995382;28;20095;-70
2021/06/29 10:01:01;;;;;;;5.35;4.95;;;30.30;57.70;;;;;;4995090;28;20474;-70
2021/06/29 10:03:34;;;;;;;5.72;5.22;;;30.10;58.20;;;;;;4995381;28;20046;-71
2021/06/29 10:06:04;;;;;;;6.00;5.60;;;30.00;59.00;;;;;;4994773;28;20409;-71
2021/06/29 10:08:34;;;;;;;6.13;5.63;;;30.00;58.80;;;;;;4994961;28;20101;-71
2021/06/29 10:11:13;;;;;;;10.43;7.13;;;30.30;58.70;;;;;;4995147;28;20054;-71
2021/06/29 10:13:43;;;;;;;6.57;6.07;;;30.60;59.20;;;;;;4995116;28;20521;-70
2021/06/29 10:16:11;;;;;;;7.30;6.70;;;30.90;58.70;;;;;;4996789;28;20050;-71
2021/06/29 10:18:40;;;;;;;6.82;6.22;;;31.10;58.90;;;;;;5014762;28;20046;-71
2021/06/29 10:21:23;;;;;;;9.15;8.23;;;31.20;58.20;;;;;;5012738;28;20140;-71
2021/06/29 10:23:56;;;;;;;6.15;5.65;;;31.80;57.50;;;;;;4995550;28;20054;-70
2021/06/29 10:26:24;;;;;;;6.00;5.50;;;32.20;56.00;;;;;;4995288;28;20050;-71
2021/06/29 10:28:52;;;;;;;6.43;5.82;;;32.10;55.20;;;;;;4994959;28;20430;-71
2021/06/29 10:31:22;;;;;;;6.22;5.70;;;31.40;55.90;;;;;;4994898;28;20105;-71
2021/06/29 10:33:52;;;;;;;5.63;5.13;;;31.50;55.80;;;;;;4995393;28;20100;-71
2021/06/29 10:36:20;;;;;;;6.05;5.65;;;31.30;55.70;;;;;;4994895;28;20046;-70
2021/06/29 10:38:47;;;;;;;5.72;5.13;;;30.80;55.60;;;;;;4994913;28;20050;-71
2021/06/29 10:41:15;;;;;;;5.55;5.15;;;30.50;56.50;;;;;;4994682;28;20491;-71
2021/06/29 10:43:42;;;;;;;6.70;6.10;;;30.60;56.20;;;;;;4994637;28;20105;-70
2021/06/29 10:46:14;;;;;;;6.13;5.57;;;30.90;58.10;;;;;;4994609;28;20050;-71
2021/06/29 10:48:42;;;;;;;6.22;5.72;;;31.00;55.70;;;;;;4994591;28;20046;-70
2021/06/29 10:51:13;;;;;;;5.82;5.32;;;31.00;55.50;;;;;;4993919;28;20057;-70
2021/06/29 10:53:46;;;;;;;5.93;5.35;;;30.70;54.50;;;;;;4994431;28;20050;-71
2021/06/29 10:56:17;;;;;;;5.47;4.97;;;30.60;55.20;;;;;;4993828;28;20418;-71
2021/06/29 10:58:46;;;;;;;7.28;6.75;;;30.50;55.50;;;;;;4994543;28;20477;-70
2021/06/29 11:01:27;;;;;;;6.22;5.72;;;30.30;55.60;;;;;;4995365;28;20053;-71
2021/06/29 11:03:56;;;;;;;5.50;5.00;;;30.30;55.90;;;;;;4997985;28;20042;-71
2021/06/29 11:06:43;;;;;;;6.13;5.72;;;30.50;56.10;;;;;;5018002;28;20049;-70
2021/06/29 11:09:16;;;;;;;6.00;5.47;;;30.60;55.90;;;;;;5020877;28;20860;-69
2021/06/29 11:12:03;;;;;;;6.60;6.13;;;30.40;55.70;;;;;;5013697;28;20038;-69
2021/06/29 11:14:30;;;;;;;6.28;5.78;;;30.10;56.30;;;;;;5013339;28;20046;-69
2021/06/29 11:16:58;;;;;;;7.28;6.43;;;30.20;56.30;;;;;;5012842;28;20390;-68
2021/06/29 11:20:02;;;;;;;5.63;5.22;;;30.20;56.00;;;;;;5013547;28;20394;-70
2021/06/29 11:22:53;;;;;;;6.25;5.65;;;30.30;56.30;;;;;;5013154;28;20050;-69
2021/06/29 11:25:38;;;;;;;6.20;5.70;;;30.80;55.70;;;;;;5011349;28;20115;-70
2021/06/29 11:28:07;;;;;;;6.22;5.72;;;31.00;55.70;;;;;;4993534;28;20490;-71
2021/06/29 11:31:03;;;;;;;6.40;5.90;;;30.70;55.50;;;;;;5010616;28;20045;-69
2021/06/29 11:33:46;;;;;;;6.07;5.57;;;31.40;54.90;;;;;;5033094;28;20234;-70
2021/06/29 11:36:51;;;;;;;6.22;5.75;;;31.50;54.30;;;;;;5032711;28;20083;-69
2021/06/29 11:39:37;;;;;;;5.70;5.13;;;32.20;53.30;;;;;;5031299;28;20077;-70
2021/06/29 11:42:08;;;;;;;5.78;5.32;;;32.80;52.10;;;;;;4999315;28;20053;-70
2021/06/29 11:44:46;;;;;;;5.30;4.90;;;33.20;52.20;;;;;;5033086;28;20468;-74
2021/06/29 11:47:15;;;;;;;5.95;5.55;;;32.90;52.40;;;;;;5015535;28;20077;-70
2021/06/29 11:49:45;;;;;;;6.15;5.75;;;32.80;52.20;;;;;;5012974;28;20383;-70
2021/06/29 11:52:29;;;;;;;6.05;5.63;;;32.50;52.30;;;;;;5012513;28;20104;-71
2021/06/29 11:55:00;;;;;;;7.75;7.05;;;33.20;53.10;;;;;;5013027;28;20072;-72
2021/06/29 11:57:30;;;;;;;5.10;4.70;;;34.90;50.10;;;;;;5012391;28;20502;-70
2021/06/29 11:59:58;;;;;;;6.18;5.78;;;35.20;48.70;;;;;;5012886;28;20054;-70
2021/06/29 12:02:26;;;;;;;5.55;5.05;;;35.20;49.00;;;;;;5011753;28;20050;-72
2021/06/29 12:04:55;;;;;;;5.45;5.05;;;34.70;48.40;;;;;;5012531;28;20046;-71
2021/06/29 12:07:39;;;;;;;5.85;5.35;;;33.80;49.50;;;;;;5012409;28;20088;-70
2021/06/29 12:10:11;;;;;;;6.47;5.97;;;33.70;50.20;;;;;;5012667;28;20115;-73
2021/06/29 12:12:38;;;;;;;6.45;5.95;;;33.30;51.50;;;;;;5013025;28;20077;-70
2021/06/29 12:15:09;;;;;;;7.35;6.75;;;32.50;52.00;;;;;;5012294;28;20053;-72
2021/06/29 12:17:37;;;;;;;8.57;7.78;;;32.30;55.70;;;;;;5012218;28;20113;-73
2021/06/29 12:20:07;;;;;;;8.52;7.82;;;31.70;58.10;;;;;;5025415;28;20127;-72
2021/06/29 12:22:36;;;;;;;8.98;8.18;;;31.70;58.80;;;;;;5013020;28;20046;-70
2021/06/29 12:25:04;;;;;;;9.52;8.82;;;31.60;60.10;;;;;;5012371;28;20046;-71
2021/06/29 12:27:32;;;;;;;9.50;8.63;;;31.10;60.70;;;;;;5012304;28;20100;-73
2021/06/29 12:29:59;;;;;;;8.93;8.15;;;31.00;60.20;;;;;;5012382;28;20042;-74
2021/06/29 12:32:26;;;;;;;8.90;8.10;;;31.00;62.10;;;;;;5012806;28;20054;-73
2021/06/29 12:35:06;;;;;;;8.43;7.72;;;30.90;61.30;;;;;;5012454;28;20054;-71
2021/06/29 12:37:52;;;;;;;8.95;8.15;;;30.80;60.80;;;;;;5002331;28;20643;-71
2021/06/29 12:40:18;;;;;;;11.15;10.05;;;30.90;61.10;;;;;;5025717;28;20053;-70
2021/06/29 12:42:46;;;;;;;9.27;8.48;;;30.90;60.50;;;;;;5031993;28;20076;-70
2021/06/29 12:45:13;;;;;;;8.95;8.18;;;30.50;62.10;;;;;;5028016;28;20061;-70
2021/06/29 12:47:40;;;;;;;8.75;8.05;;;30.50;62.20;;;;;;4992490;28;20387;-70
2021/06/29 12:50:08;;;;;;;9.30;8.60;;;30.20;62.30;;;;;;4992628;28;20047;-69
2021/06/29 12:52:35;;;;;;;10.52;9.63;;;30.10;63.50;;;;;;4992800;28;20109;-71
2021/06/29 12:55:07;;;;;;;9.70;8.90;;;29.80;65.70;;;;;;4998273;28;20528;-71
2021/06/29 12:57:38;;;;;;;13.07;11.73;;;29.80;66.50;;;;;;4995685;28;20112;-72